Aviation Digital Data Service (ADDS)

Output produced by METARs form (1323 UTC 08 May 2021)
found at http://aviationweather.gov/metar/data/
 
KLCH 081253Z AUTO 15005KT 10SM CLR 21/19 A3005 RMK AO2 SLP184 T02060194
KLCH 081120Z 0812/0912 15005KT P6SM FEW250 
     FM081400 17012G20KT P6SM SCT250 
     FM090100 17010KT P6SM FEW035 SCT250